Time;durP1;ratioP1;P1;durP2;ratioP2;P2;SDS_P1;SDS_P2;PMS_P1;PMS_P2;Temp;Humidity;BMP_temperature;BMP_pressure;BME280_temperature;BME280_humidity;BME280_pressure;Samples;Min_cycle;Max_cycle;Signal;HPM_P1;HPM_P2
2022/03/27 00:01:34;;;;;;;;;40.00;33.75;;;;;13.95;43.21;102499.63;5031806;28;45442;-60
2022/03/27 00:04:02;;;;;;;;;48.25;35.00;;;;;13.91;43.11;102506.88;5031249;28;45589;-61
2022/03/27 00:06:28;;;;;;;;;39.50;36.00;;;;;13.89;43.25;102495.47;5030649;28;46635;-61
2022/03/27 00:08:54;;;;;;;;;47.25;36.50;;;;;13.87;43.31;102497.31;5046641;28;45401;-68
2022/03/27 00:11:27;;;;;;;;;52.75;38.75;;;;;13.85;43.41;102500.97;5052434;28;45313;-63
2022/03/27 00:13:54;;;;;;;;;46.50;36.00;;;;;13.83;43.40;102498.41;5048570;28;45371;-60
2022/03/27 00:16:21;;;;;;;;;49.75;37.25;;;;;13.83;43.58;102508.16;5048576;28;46451;-61
2022/03/27 00:18:47;;;;;;;;;48.75;37.50;;;;;13.80;43.52;102495.03;5049431;28;45427;-61
2022/03/27 00:21:14;;;;;;;;;55.75;38.75;;;;;13.78;43.48;102494.22;5060249;28;45392;-64
2022/03/27 00:23:40;;;;;;;;;51.25;34.50;;;;;13.76;43.08;102502.25;5060606;28;45536;-64
2022/03/27 00:26:06;;;;;;;;;42.00;34.75;;;;;13.74;43.74;102495.28;5061518;28;45332;-64
2022/03/27 00:28:32;;;;;;;;;50.00;39.50;;;;;13.75;43.88;102499.69;5050416;28;45671;-65
2022/03/27 00:31:00;;;;;;;;;52.50;39.25;;;;;13.72;43.66;102492.72;5063460;28;45350;-64
2022/03/27 00:33:27;;;;;;;;;57.50;38.00;;;;;13.71;43.86;102492.78;5063017;28;45582;-66
2022/03/27 00:35:54;;;;;;;;;48.75;36.25;;;;;13.68;43.98;102494.66;5063440;28;45333;-66
2022/03/27 00:38:19;;;;;;;;;46.75;35.25;;;;;13.67;43.78;102492.94;5062131;28;45301;-68
2022/03/27 00:40:45;;;;;;;;;50.25;39.50;;;;;13.66;44.02;102498.28;5054693;28;45303;-68
2022/03/27 00:43:11;;;;;;;;;53.25;36.75;;;;;13.63;44.08;102496.63;5024984;28;45481;-67
2022/03/27 00:45:37;;;;;;;;;45.25;37.75;;;;;13.62;44.20;102488.75;5043133;28;45423;-73
2022/03/27 00:48:06;;;;;;;;;49.50;37.75;;;;;13.60;44.26;102494.13;5042651;28;45265;-66
2022/03/27 00:50:31;;;;;;;;;47.00;35.75;;;;;13.59;44.25;102491.56;5043286;28;45272;-66
2022/03/27 00:52:58;;;;;;;;;51.25;36.75;;;;;13.56;44.49;102500.47;5042399;28;45254;-66
2022/03/27 00:55:24;;;;;;;;;51.25;38.00;;;;;13.55;44.31;102493.47;5044202;28;46376;-66
2022/03/27 00:57:50;;;;;;;;;50.00;38.50;;;;;13.52;44.49;102484.81;5038584;28;45451;-70
2022/03/27 01:00:39;;;;;;;;;56.75;41.00;;;;;13.49;44.49;102483.13;5037116;28;45432;-65
2022/03/27 01:03:11;;;;;;;;;49.00;38.50;;;;;13.49;44.53;102485.78;5064318;28;45539;-66
2022/03/27 01:05:41;;;;;;;;;51.50;40.00;;;;;13.47;44.64;102481.47;5051073;28;45921;-63
2022/03/27 01:08:10;;;;;;;;;50.25;36.25;;;;;13.45;44.71;102486.84;5045742;28;45312;-64
2022/03/27 01:10:36;;;;;;;;;41.50;37.25;;;;;13.44;44.90;102485.13;5062678;28;45451;-63
2022/03/27 01:13:16;;;;;;;;;54.50;41.75;;;;;13.41;45.01;102474.66;5050250;28;45388;-66
2022/03/27 01:15:56;;;;;;;;;59.00;39.75;;;;;13.39;45.05;102487.09;5051037;28;45292;-70
2022/03/27 01:18:22;;;;;;;;;49.75;39.75;;;;;13.32;45.22;102475.91;5045591;28;45382;-63
2022/03/27 01:20:48;;;;;;;;;53.00;38.75;;;;;13.31;45.33;102484.78;5042455;28;45353;-67
2022/03/27 01:23:14;;;;;;;;;47.50;37.00;;;;;13.28;45.37;102484.94;5042311;28;45335;-67
2022/03/27 01:25:45;;;;;;;;;50.75;38.00;;;;;13.27;45.51;102482.31;5042167;28;45381;-67
2022/03/27 01:28:14;;;;;;;;;50.50;39.00;;;;;13.23;45.55;102472.81;5024391;28;45442;-66
2022/03/27 01:30:41;;;;;;;;;54.25;41.75;;;;;13.21;45.83;102477.31;5042055;28;45397;-66
2022/03/27 01:33:09;;;;;;;;;53.75;39.00;;;;;13.18;45.74;102478.25;5042297;28;45187;-62
2022/03/27 01:35:36;;;;;;;;;50.00;37.75;;;;;13.18;45.66;102472.97;5041243;28;46138;-68
2022/03/27 01:38:02;;;;;;;;;50.25;38.00;;;;;13.17;45.87;102473.03;5042471;28;45463;-60
2022/03/27 01:40:28;;;;;;;;;49.75;38.50;;;;;13.14;45.93;102466.97;5051170;28;45290;-62
2022/03/27 01:42:55;;;;;;;;;50.75;34.50;;;;;13.12;46.15;102466.16;5042610;28;45330;-63
2022/03/27 01:45:22;;;;;;;;;52.50;39.00;;;;;13.10;46.03;102462.69;5025958;28;47670;-64
2022/03/27 01:47:47;;;;;;;;;48.50;36.00;;;;;13.09;46.17;102458.34;5031845;28;45545;-64
2022/03/27 01:50:13;;;;;;;;;47.00;36.75;;;;;13.06;46.32;102450.53;5048327;28;45450;-65
2022/03/27 01:52:39;;;;;;;;;46.00;38.50;;;;;13.05;46.33;102453.25;5049051;28;45380;-65
2022/03/27 01:55:11;;;;;;;;;43.50;34.75;;;;;13.02;46.46;102453.38;5049898;28;46460;-65
2022/03/27 01:57:37;;;;;;;;;53.75;41.75;;;;;13.01;46.37;102452.50;5047532;28;45370;-65
2022/03/27 02:00:05;;;;;;;;;50.50;37.50;;;;;12.98;46.50;102447.38;5051419;28;45442;-64
2022/03/27 02:02:31;;;;;;;;;53.00;35.50;;;;;12.98;46.82;102451.78;5046950;28;45559;-65
2022/03/27 02:04:56;;;;;;;;;50.50;40.00;;;;;12.95;46.64;102444.81;5056719;28;45602;-65
2022/03/27 02:07:22;;;;;;;;;46.50;36.00;;;;;12.94;46.90;102439.59;5042420;28;45443;-67
2022/03/27 02:09:50;;;;;;;;;43.50;35.75;;;;;12.91;46.73;102439.75;5059939;28;45431;-65
2022/03/27 02:12:15;;;;;;;;;44.50;36.25;;;;;12.90;47.10;102444.19;5060246;28;45410;-65
2022/03/27 02:14:41;;;;;;;;;42.00;36.50;;;;;12.87;47.28;102439.00;5043435;28;45935;-65
2022/03/27 02:17:08;;;;;;;;;39.25;33.75;;;;;12.84;47.15;102439.13;5040748;28;45423;-65
2022/03/27 02:19:35;;;;;;;;;54.00;39.00;;;;;12.81;47.28;102431.34;5041264;28;45309;-65
2022/03/27 02:22:02;;;;;;;;;44.50;37.50;;;;;12.80;47.34;102437.56;5041834;28;45476;-65
2022/03/27 02:24:27;;;;;;;;;44.00;35.75;;;;;12.78;47.49;102437.59;5041564;28;45991;-65
2022/03/27 02:26:53;;;;;;;;;54.00;38.50;;;;;12.77;47.45;102449.09;5041752;28;45333;-65
2022/03/27 02:29:19;;;;;;;;;51.00;37.00;;;;;12.76;47.53;102441.25;5041484;28;45275;-65
2022/03/27 02:31:45;;;;;;;;;41.25;34.00;;;;;12.75;47.22;102431.59;5041326;28;45384;-65
2022/03/27 02:34:11;;;;;;;;;42.50;35.25;;;;;12.76;47.28;102434.16;5041394;28;45367;-65
2022/03/27 02:36:36;;;;;;;;;52.00;39.50;;;;;12.75;47.43;102435.09;5041567;28;45348;-65
2022/03/27 02:39:03;;;;;;;;;48.75;35.75;;;;;12.74;47.75;102445.75;5041115;28;45659;-65
2022/03/27 02:41:29;;;;;;;;;44.25;35.25;;;;;12.73;47.48;102447.53;5023453;28;45405;-65
2022/03/27 02:43:55;;;;;;;;;46.50;36.00;;;;;12.71;47.80;102446.72;5051828;28;45745;-65
2022/03/27 02:46:20;;;;;;;;;47.25;35.50;;;;;12.68;47.67;102445.97;5040116;28;45380;-65
2022/03/27 02:48:46;;;;;;;;;45.75;37.00;;;;;12.67;47.58;102444.28;5022861;28;45409;-65
2022/03/27 02:51:11;;;;;;;;;46.75;36.25;;;;;12.66;47.76;102443.41;5040787;28;45386;-65
2022/03/27 02:53:37;;;;;;;;;43.75;36.75;;;;;12.67;47.90;102446.91;5040511;28;46304;-65
2022/03/27 02:56:06;;;;;;;;;47.25;37.25;;;;;12.65;47.90;102443.47;5040265;28;45444;-65
2022/03/27 02:58:32;;;;;;;;;39.00;32.00;;;;;12.65;47.68;102446.13;5040819;28;45376;-65
2022/03/27 03:00:58;;;;;;;;;43.25;33.50;;;;;12.62;47.83;102443.59;5040498;28;45423;-65
2022/03/27 03:03:23;;;;;;;;;51.00;35.25;;;;;12.60;47.97;102442.78;5057175;28;45578;-65
2022/03/27 03:05:49;;;;;;;;;41.25;33.75;;;;;12.57;48.13;102446.44;5060990;28;45396;-65
2022/03/27 03:08:17;;;;;;;;;35.00;31.00;;;;;12.55;48.20;102442.97;5060557;28;45384;-65
2022/03/27 03:10:44;;;;;;;;;39.50;32.50;;;;;12.53;48.36;102443.03;5060966;28;45366;-65
2022/03/27 03:13:10;;;;;;;;;34.00;30.75;;;;;12.52;48.30;102443.97;5056715;28;45722;-65
2022/03/27 03:15:41;;;;;;;;;39.50;33.50;;;;;12.53;48.23;102447.47;5039401;28;45326;-64
2022/03/27 03:18:09;;;;;;;;;54.75;39.25;;;;;12.50;48.45;102444.94;5040428;28;45384;-65
2022/03/27 03:20:35;;;;;;;;;44.00;35.25;;;;;12.46;48.30;102441.56;5040612;28;45388;-65
2022/03/27 03:23:00;;;;;;;;;40.25;31.00;;;;;12.43;48.17;102446.97;5040260;28;46118;-64
2022/03/27 03:25:26;;;;;;;;;42.00;29.75;;;;;12.40;48.51;102447.09;5040966;28;45466;-65
2022/03/27 03:27:52;;;;;;;;;50.25;34.50;;;;;12.37;48.58;102451.63;5040729;28;45273;-65
2022/03/27 03:30:17;;;;;;;;;42.25;34.50;;;;;12.34;48.55;102454.41;5040438;28;45520;-65
2022/03/27 03:32:44;;;;;;;;;40.75;33.00;;;;;12.33;48.73;102450.06;5040031;28;45358;-62
2022/03/27 03:35:11;;;;;;;;;36.00;33.00;;;;;12.30;48.79;102448.38;5040368;28;45438;-66
2022/03/27 03:37:37;;;;;;;;;44.75;39.25;;;;;12.29;48.86;102451.94;5040411;28;45253;-66
2022/03/27 03:40:06;;;;;;;;;39.00;32.75;;;;;12.27;48.87;102453.78;5041193;28;45258;-66
2022/03/27 03:42:33;;;;;;;;;43.00;28.25;;;;;12.26;48.67;102446.78;5040320;28;46598;-65
2022/03/27 03:44:58;;;;;;;;;40.00;33.50;;;;;12.25;49.05;102450.34;5022636;28;45534;-63
2022/03/27 03:47:24;;;;;;;;;39.75;32.50;;;;;12.24;49.10;102456.53;5040083;28;45362;-65
2022/03/27 03:49:49;;;;;;;;;48.75;31.50;;;;;12.24;48.93;102453.88;5040090;28;45604;-65
2022/03/27 03:52:15;;;;;;;;;38.50;34.00;;;;;12.21;49.04;102452.22;5022151;28;45788;-64
2022/03/27 03:54:40;;;;;;;;;46.25;33.50;;;;;12.19;49.15;102454.09;5040446;28;45393;-66
2022/03/27 03:57:06;;;;;;;;;47.00;34.75;;;;;12.18;49.18;102454.16;5039990;28;45685;-64
2022/03/27 03:59:33;;;;;;;;;40.50;34.00;;;;;12.16;49.08;102448.91;5024224;28;45688;-65
2022/03/27 04:01:59;;;;;;;;;36.00;30.25;;;;;12.15;49.53;102443.69;5028614;28;47848;-64
2022/03/27 04:04:25;;;;;;;;;42.50;31.00;;;;;12.14;49.42;102444.59;5062196;28;45685;-64
2022/03/27 04:06:51;;;;;;;;;36.50;29.00;;;;;12.12;49.24;102457.03;5025650;28;45789;-64
2022/03/27 04:09:16;;;;;;;;;33.50;31.50;;;;;12.11;49.46;102450.00;5043688;28;45540;-64
2022/03/27 04:11:43;;;;;;;;;45.75;37.00;;;;;12.08;49.21;102447.47;5043304;28;45987;-64
2022/03/27 04:14:09;;;;;;;;;50.25;40.50;;;;;12.10;49.57;102445.66;5047636;28;45375;-65
2022/03/27 04:16:34;;;;;;;;;42.50;34.50;;;;;12.09;49.34;102446.59;5042943;28;45344;-64
2022/03/27 04:19:00;;;;;;;;;44.25;35.00;;;;;12.07;49.57;102446.63;5043640;28;45312;-64
2022/03/27 04:21:26;;;;;;;;;45.25;36.75;;;;;12.06;49.60;102458.09;5043302;28;45658;-64
2022/03/27 04:23:52;;;;;;;;;47.50;35.75;;;;;12.04;49.65;102459.09;5043675;28;45423;-64
2022/03/27 04:26:17;;;;;;;;;39.75;34.75;;;;;12.01;49.65;102455.66;5043522;28;45444;-64
2022/03/27 04:28:43;;;;;;;;;41.50;34.00;;;;;11.98;49.68;102457.53;5043660;28;45661;-64
2022/03/27 04:31:08;;;;;;;;;40.25;31.50;;;;;11.96;49.72;102452.31;5043110;28;45430;-64
2022/03/27 04:33:34;;;;;;;;;34.25;32.75;;;;;11.94;50.03;102451.53;5043147;28;45328;-64
2022/03/27 04:35:59;;;;;;;;;43.50;32.75;;;;;11.95;49.87;102455.03;5043407;28;45194;-64
2022/03/27 04:38:25;;;;;;;;;39.00;33.75;;;;;11.93;50.04;102457.72;5043238;28;45376;-64
2022/03/27 04:40:50;;;;;;;;;40.50;33.00;;;;;11.93;50.36;102460.38;5042894;28;45986;-64
2022/03/27 04:43:16;;;;;;;;;40.50;32.25;;;;;11.91;50.10;102461.31;5043258;28;45461;-64
2022/03/27 04:45:42;;;;;;;;;38.00;33.75;;;;;11.90;50.33;102464.88;5043219;28;45312;-64
2022/03/27 04:48:07;;;;;;;;;42.00;32.50;;;;;11.87;50.39;102462.38;5042805;28;45810;-63
2022/03/27 04:50:33;;;;;;;;;33.75;30.50;;;;;11.86;50.33;102473.84;5042161;28;45463;-63
2022/03/27 04:52:58;;;;;;;;;52.25;34.50;;;;;11.83;50.53;102464.25;5043037;28;45339;-63
2022/03/27 04:55:24;;;;;;;;;37.50;31.50;;;;;11.81;50.49;102468.72;5042500;28;45436;-63
2022/03/27 04:57:49;;;;;;;;;38.25;32.75;;;;;11.80;50.49;102466.13;5042107;28;45536;-63
2022/03/27 05:00:15;;;;;;;;;48.25;35.50;;;;;11.79;50.84;102459.97;5040735;28;46203;-63
2022/03/27 05:02:42;;;;;;;;;43.50;32.75;;;;;11.77;50.58;102469.75;5052042;28;45481;-63
2022/03/27 05:05:10;;;;;;;;;39.50;34.00;;;;;11.74;50.73;102464.53;5061178;28;45746;-63
2022/03/27 05:07:37;;;;;;;;;31.75;29.75;;;;;11.72;50.93;102469.03;5043597;28;45676;-64
2022/03/27 05:10:04;;;;;;;;;39.25;31.50;;;;;11.69;50.81;102470.00;5043363;28;47926;-63
2022/03/27 05:12:30;;;;;;;;;38.75;30.00;;;;;11.66;50.90;102474.53;5062566;28;45787;-63
2022/03/27 05:14:56;;;;;;;;;36.25;31.75;;;;;11.65;51.33;102472.81;5044477;28;45486;-63
2022/03/27 05:17:21;;;;;;;;;45.00;34.75;;;;;11.62;51.46;102480.84;5041903;28;45425;-63
2022/03/27 05:19:47;;;;;;;;;37.00;27.25;;;;;11.57;51.10;102473.09;5042187;28;45324;-64
2022/03/27 05:22:13;;;;;;;;;35.25;31.50;;;;;11.57;51.04;102480.13;5042326;28;45395;-63
2022/03/27 05:24:38;;;;;;;;;44.25;35.50;;;;;11.56;51.21;102481.06;5042245;28;45346;-63
2022/03/27 05:27:04;;;;;;;;;46.25;33.25;;;;;11.54;50.90;102478.47;5042414;28;45727;-63
2022/03/27 05:29:30;;;;;;;;;38.75;30.25;;;;;11.54;51.24;102483.75;5041849;28;45431;-63
2022/03/27 05:31:57;;;;;;;;;45.50;34.25;;;;;11.53;51.42;102486.44;5041986;28;45400;-63
2022/03/27 05:34:23;;;;;;;;;39.00;31.50;;;;;11.51;51.74;102483.84;5042357;28;45436;-64
2022/03/27 05:36:48;;;;;;;;;40.50;31.25;;;;;11.51;51.96;102488.25;5042319;28;45575;-63
2022/03/27 05:39:14;;;;;;;;;35.50;30.75;;;;;11.50;51.31;102487.41;5042725;28;46323;-64
2022/03/27 05:41:39;;;;;;;;;34.25;32.00;;;;;11.52;51.68;102484.72;5042354;28;45579;-63
2022/03/27 05:44:05;;;;;;;;;42.25;34.75;;;;;11.51;51.92;102488.25;5042204;28;45687;-63
2022/03/27 05:46:31;;;;;;;;;37.75;32.00;;;;;11.52;51.84;102492.63;5041931;28;45434;-63
2022/03/27 05:48:56;;;;;;;;;38.25;32.50;;;;;11.51;51.74;102483.84;5042042;28;45393;-64
2022/03/27 05:51:22;;;;;;;;;41.75;32.25;;;;;11.51;51.69;102490.91;5041942;28;45390;-63
2022/03/27 05:53:48;;;;;;;;;40.75;34.00;;;;;11.50;51.67;102492.69;5042042;28;45399;-63
2022/03/27 05:56:13;;;;;;;;;39.50;33.00;;;;;11.52;51.90;102492.63;5042205;28;45538;-64
2022/03/27 05:58:39;;;;;;;;;40.75;33.50;;;;;11.50;51.97;102497.97;5041619;28;45435;-63
2022/03/27 06:01:05;;;;;;;;;38.50;31.00;;;;;11.51;51.85;102493.53;5039958;28;45448;-63
2022/03/27 06:03:31;;;;;;;;;44.75;36.25;;;;;11.52;51.95;102490.00;5057872;28;45363;-63
2022/03/27 06:05:57;;;;;;;;;40.25;33.75;;;;;11.52;51.94;102503.19;5060277;28;45552;-63
2022/03/27 06:08:22;;;;;;;;;31.50;27.50;;;;;11.54;51.52;102501.38;5060049;28;45590;-64
2022/03/27 06:10:49;;;;;;;;;42.00;33.75;;;;;11.55;51.79;102506.59;5061371;28;45391;-63
2022/03/27 06:13:16;;;;;;;;;38.50;32.50;;;;;11.54;51.66;102501.38;5057046;28;45674;-63
2022/03/27 06:15:42;;;;;;;;;39.25;34.00;;;;;11.55;51.89;102506.59;5041379;28;45632;-63
2022/03/27 06:18:10;;;;;;;;;47.00;38.25;;;;;11.62;51.85;102510.75;5040925;28;45409;-63
2022/03/27 06:20:36;;;;;;;;;42.75;36.25;;;;;11.70;51.74;102506.06;5041062;28;45445;-63
2022/03/27 06:23:03;;;;;;;;;48.50;33.50;;;;;11.77;51.57;102506.69;5041286;28;45364;-63
2022/03/27 06:25:30;;;;;;;;;45.00;32.25;;;;;11.82;51.83;102506.53;5023611;28;45495;-63
2022/03/27 06:27:57;;;;;;;;;34.00;31.75;;;;;11.90;51.73;102512.41;5041128;28;46073;-63
2022/03/27 06:30:26;;;;;;;;;42.75;34.00;;;;;11.95;51.37;102513.13;5040898;28;45412;-63
2022/03/27 06:32:51;;;;;;;;;37.75;34.25;;;;;12.07;51.33;102514.44;5040913;28;45498;-63
2022/03/27 06:35:19;;;;;;;;;40.25;29.25;;;;;12.16;51.14;102514.94;5041346;28;45321;-63
2022/03/27 06:37:45;;;;;;;;;40.75;34.50;;;;;12.18;51.10;102515.78;5041207;28;45570;-64
2022/03/27 06:40:13;;;;;;;;;45.50;34.00;;;;;12.27;50.99;102515.41;5041769;28;45435;-63
2022/03/27 06:42:39;;;;;;;;;36.00;31.50;;;;;12.37;50.73;102520.34;5041249;28;45444;-64
2022/03/27 06:45:05;;;;;;;;;46.00;34.25;;;;;12.47;50.71;102517.28;5041412;28;45443;-63
2022/03/27 06:47:32;;;;;;;;;34.75;29.50;;;;;12.55;50.41;102515.19;5040584;28;45350;-64
2022/03/27 06:49:59;;;;;;;;;43.50;36.50;;;;;12.58;50.31;102517.75;5040495;28;46405;-63
2022/03/27 06:52:26;;;;;;;;;41.75;31.75;;;;;12.64;50.35;102521.03;5040783;28;45396;-63
2022/03/27 06:54:52;;;;;;;;;36.75;33.75;;;;;12.69;50.13;102519.09;5041003;28;45448;-64
2022/03/27 06:57:18;;;;;;;;;42.25;32.25;;;;;12.69;49.76;102512.03;5022590;28;46886;-63
2022/03/27 07:05:15;;;;;;;;;36.75;34.50;;;;;12.76;49.90;102513.50;5059299;28;45486;-63
2022/03/27 07:07:43;;;;;;;;;47.50;34.25;;;;;12.76;49.91;102521.44;5040074;28;45534;-63
2022/03/27 07:10:11;;;;;;;;;44.25;34.50;;;;;12.79;49.80;102521.28;5040654;28;45467;-63
2022/03/27 07:12:37;;;;;;;;;43.00;35.50;;;;;12.81;49.90;102522.13;5051285;28;45386;-63
2022/03/27 07:15:03;;;;;;;;;37.75;34.25;;;;;12.85;49.80;102510.47;5041437;28;45753;-63
2022/03/27 07:17:28;;;;;;;;;40.75;31.50;;;;;12.88;49.58;102512.16;5050710;28;46937;-63
2022/03/27 07:19:54;;;;;;;;;37.50;34.00;;;;;12.89;49.65;102516.53;5047399;28;45310;-63
2022/03/27 07:22:19;;;;;;;;;37.00;33.00;;;;;12.90;49.69;102518.25;5047291;28;45384;-64
2022/03/27 07:24:46;;;;;;;;;37.00;27.75;;;;;12.91;49.68;102525.25;5051370;28;45444;-63
2022/03/27 07:27:12;;;;;;;;;34.75;32.50;;;;;12.93;49.54;102520.75;5042723;28;46298;-63
2022/03/27 07:29:38;;;;;;;;;37.75;34.00;;;;;12.94;49.51;102519.81;5051855;28;45265;-62
2022/03/27 07:32:08;;;;;;;;;40.25;34.25;;;;;12.93;49.41;102523.41;5042065;28;45623;-63
2022/03/27 07:34:35;;;;;;;;;34.00;31.75;;;;;12.91;49.66;102525.25;5051397;28;45467;-63
2022/03/27 07:37:01;;;;;;;;;37.00;31.50;;;;;12.92;49.81;102526.97;5053693;28;45411;-63
2022/03/27 07:39:27;;;;;;;;;41.25;34.00;;;;;12.96;49.39;102531.22;5049375;28;45430;-62
2022/03/27 07:41:53;;;;;;;;;39.25;32.00;;;;;12.99;49.55;102531.09;5040844;28;45436;-63
2022/03/27 07:44:18;;;;;;;;;32.75;29.25;;;;;13.02;49.51;102533.59;5050857;28;45212;-63
2022/03/27 07:46:44;;;;;;;;;36.75;32.25;;;;;13.03;49.23;102532.69;5046474;28;45302;-64
2022/03/27 07:49:10;;;;;;;;;34.75;31.50;;;;;13.04;49.35;102531.78;5049530;28;45282;-62
2022/03/27 07:51:36;;;;;;;;;32.25;31.50;;;;;13.09;49.66;102536.84;5053688;28;45417;-64
2022/03/27 07:54:03;;;;;;;;;37.00;32.00;;;;;13.18;49.31;102533.81;5051364;28;45412;-63
2022/03/27 07:56:29;;;;;;;;;40.50;33.00;;;;;13.28;49.23;102534.38;5051991;28;45424;-63
2022/03/27 07:58:56;;;;;;;;;39.25;33.75;;;;;13.33;49.06;102524.41;5037801;28;45447;-63
2022/03/27 08:01:22;;;;;;;;;34.75;26.25;;;;;13.37;49.45;102526.03;5042273;28;45538;-62
2022/03/27 08:03:49;;;;;;;;;39.75;30.25;;;;;13.44;49.08;102531.94;5042518;28;45202;-63
2022/03/27 08:06:15;;;;;;;;;53.50;40.25;;;;;13.49;49.00;102529.91;5051428;28;45980;-63
2022/03/27 08:08:41;;;;;;;;;42.50;36.25;;;;;13.57;48.97;102522.50;5051397;28;45379;-63
2022/03/27 08:11:07;;;;;;;;;44.25;32.75;;;;;13.67;48.85;102529.16;5050561;28;45494;-63
2022/03/27 08:13:32;;;;;;;;;34.50;30.75;;;;;13.78;48.66;102520.72;5055533;28;45323;-62
2022/03/27 08:15:58;;;;;;;;;37.25;28.00;;;;;13.85;48.56;102527.47;5038720;28;47678;-62
2022/03/27 08:18:23;;;;;;;;;35.50;32.25;;;;;13.91;48.34;102532.50;5048428;28;45328;-63
2022/03/27 08:20:49;;;;;;;;;36.00;32.50;;;;;13.96;48.54;102533.13;5048973;28;45413;-63
2022/03/27 08:23:14;;;;;;;;;32.25;27.00;;;;;14.05;48.38;102530.06;5051440;28;45477;-62
2022/03/27 08:28:24;;;;;;;;;35.25;32.25;;;;;14.25;47.91;102534.47;5053148;28;45628;-62
2022/03/27 08:30:50;;;;;;;;;44.00;33.00;;;;;14.32;47.59;102529.75;5048801;28;45659;-62
2022/03/27 08:33:17;;;;;;;;;28.25;24.50;;;;;14.37;47.52;102541.00;5049265;28;45349;-62
2022/03/27 08:35:43;;;;;;;;;36.25;30.50;;;;;14.42;47.20;102531.03;5052173;28;45459;-62
2022/03/27 08:38:16;;;;;;;;;42.75;32.50;;;;;14.49;47.47;102529.84;5028853;28;45236;-61
2022/03/27 08:40:44;;;;;;;;;31.75;30.50;;;;;14.60;47.25;102534.66;5048444;28;45410;-62
2022/03/27 08:43:14;;;;;;;;;40.25;32.50;;;;;14.69;46.97;102528.91;5050323;28;45557;-62
2022/03/27 08:45:41;;;;;;;;;34.50;28.50;;;;;14.78;46.61;102532.00;5052430;28;46186;-62
2022/03/27 08:48:07;;;;;;;;;41.00;32.00;;;;;14.90;46.56;102529.66;5053808;28;45468;-62
2022/03/27 08:50:49;;;;;;;;;31.50;28.50;;;;;15.00;45.93;102534.44;5051209;28;45561;-61
2022/03/27 08:53:22;;;;;;;;;30.75;27.00;;;;;15.15;45.79;102526.66;5053840;28;45427;-61
2022/03/27 08:55:57;;;;;;;;;34.25;28.25;;;;;15.27;45.31;102536.66;5050430;28;45415;-62
2022/03/27 08:58:31;;;;;;;;;40.75;26.25;;;;;15.37;45.09;102527.28;5052050;28;45372;-60
2022/03/27 09:00:57;;;;;;;;;29.25;24.75;;;;;15.50;45.31;102533.72;5054824;28;45488;-61
2022/03/27 09:03:23;;;;;;;;;31.25;26.00;;;;;15.62;44.97;102537.53;5051669;28;45527;-61
2022/03/27 09:05:49;;;;;;;;;34.00;24.50;;;;;15.66;44.75;102530.28;5053344;28;45550;-61
2022/03/27 09:08:15;;;;;;;;;30.75;26.50;;;;;15.67;44.71;102527.56;5052330;28;45511;-62
2022/03/27 09:10:41;;;;;;;;;32.00;29.00;;;;;15.75;44.43;102532.47;5051959;28;45333;-61
2022/03/27 09:13:13;;;;;;;;;34.25;25.75;;;;;15.85;44.26;102534.53;5054319;28;45562;-62
2022/03/27 09:15:40;;;;;;;;;40.00;28.75;;;;;15.89;43.96;102536.13;5050221;28;45391;-62
2022/03/27 09:18:08;;;;;;;;;29.25;27.75;;;;;15.95;43.89;102536.72;5050318;28;45309;-62
2022/03/27 09:20:35;;;;;;;;;26.00;24.50;;;;;16.03;43.77;102542.47;5052058;28;45166;-62
2022/03/27 09:23:31;;;;;;;;;33.00;27.50;;;;;16.12;43.24;102542.88;5051821;28;45479;-62
2022/03/27 09:26:04;;;;;;;;;31.00;25.75;;;;;16.17;42.91;102545.25;5054772;28;45408;-63
2022/03/27 09:28:32;;;;;;;;;35.00;27.75;;;;;16.23;42.62;102544.06;5051733;28;45356;-62
2022/03/27 09:31:00;;;;;;;;;27.75;24.75;;;;;16.24;42.59;102544.00;5050218;28;45487;-62
2022/03/27 09:33:46;;;;;;;;;28.50;25.25;;;;;16.26;42.35;102543.91;5048269;28;45422;-63
2022/03/27 09:36:15;;;;;;;;;36.00;29.25;;;;;16.34;42.54;102541.69;5051725;28;45376;-62
2022/03/27 09:38:55;;;;;;;;;32.75;27.50;;;;;16.38;42.24;102545.91;5051698;28;45363;-62
2022/03/27 09:41:39;;;;;;;;;32.50;24.75;;;;;16.43;42.26;102543.81;5050954;28;45396;-62
2022/03/27 09:44:19;;;;;;;;;24.75;22.75;;;;;16.48;42.07;102549.75;5051812;28;45703;-62
2022/03/27 09:46:55;;;;;;;;;33.75;28.25;;;;;16.51;41.82;102540.75;5052326;28;45579;-63
2022/03/27 09:49:40;;;;;;;;;26.00;18.75;;;;;16.54;42.09;102536.13;5054300;28;45424;-63
2022/03/27 09:52:11;;;;;;;;;29.50;26.75;;;;;16.63;42.49;102535.59;5050576;28;45564;-63
2022/03/27 09:54:56;;;;;;;;;33.50;24.75;;;;;16.77;41.68;102542.00;5052979;28;45238;-63
2022/03/27 09:57:29;;;;;;;;;36.50;25.75;;;;;16.81;42.02;102531.06;5050398;28;46151;-63
2022/03/27 09:59:57;;;;;;;;;27.75;22.50;;;;;16.88;41.74;102531.59;5050463;28;45499;-63
2022/03/27 10:02:24;;;;;;;;;36.00;27.75;;;;;16.97;41.56;102523.94;5053766;28;45250;-63
2022/03/27 10:05:07;;;;;;;;;31.25;29.00;;;;;17.08;41.05;102523.31;5052246;28;45421;-63
2022/03/27 10:07:40;;;;;;;;;28.25;22.75;;;;;17.16;41.23;102526.41;5048885;28;45233;-63
2022/03/27 10:10:08;;;;;;;;;32.00;27.25;;;;;17.26;41.30;102526.72;5048622;28;45422;-63
2022/03/27 10:12:37;;;;;;;;;31.25;27.75;;;;;17.29;41.19;102523.84;5051879;28;45166;-63
2022/03/27 10:15:06;;;;;;;;;32.00;29.00;;;;;17.35;40.70;102520.84;5050671;28;45572;-63
2022/03/27 10:17:36;;;;;;;;;31.50;29.25;;;;;17.42;40.20;102521.31;5052106;28;45398;-61
2022/03/27 10:20:16;;;;;;;;;38.00;32.00;;;;;17.45;40.35;102516.66;5050615;28;45571;-61
2022/03/27 10:22:47;;;;;;;;;33.75;25.75;;;;;17.52;40.33;102512.69;5051538;28;45384;-62
2022/03/27 10:25:16;;;;;;;;;44.25;32.00;;;;;17.59;40.19;102506.03;5051546;28;45412;-60
2022/03/27 10:27:43;;;;;;;;;30.00;27.00;;;;;17.63;40.02;102505.88;5054212;28;45277;-62
2022/03/27 10:30:11;;;;;;;;;31.75;26.25;;;;;17.68;40.09;102504.63;5045887;28;45426;-62
2022/03/27 10:32:39;;;;;;;;;30.00;25.00;;;;;17.74;40.55;102503.41;5049369;28;45492;-62
2022/03/27 10:35:37;;;;;;;;;33.00;24.75;;;;;17.81;40.34;102494.94;5050653;28;45391;-61
2022/03/27 10:38:06;;;;;;;;;27.25;26.25;;;;;17.86;39.04;102502.69;5050999;28;45341;-62
2022/03/27 10:40:49;;;;;;;;;26.75;23.25;;;;;17.91;38.88;102489.03;5038830;28;48156;-65
2022/03/27 10:43:18;;;;;;;;;35.75;32.50;;;;;17.95;41.23;102488.78;5027989;28;47465;-64
2022/03/27 10:45:44;;;;;;;;;38.25;31.00;;;;;18.11;41.74;102492.19;5047896;28;45511;-62
2022/03/27 10:48:16;;;;;;;;;47.00;36.50;;;;;18.26;41.73;102482.34;5047437;28;45875;-64
2022/03/27 10:50:53;;;;;;;;;27.25;20.75;;;;;18.39;40.05;102472.59;5055693;28;45810;-62
2022/03/27 10:53:26;;;;;;;;;34.75;28.25;;;;;18.45;38.69;102478.50;5048008;28;45477;-61
2022/03/27 10:55:53;;;;;;;;;30.50;28.25;;;;;18.47;38.91;102469.44;5059299;28;44781;-65
2022/03/27 10:58:29;;;;;;;;;34.25;28.75;;;;;18.53;38.28;102469.03;5050285;28;45434;-60
2022/03/27 11:00:56;;;;;;;;;33.50;26.00;;;;;18.56;38.05;102475.97;5045557;28;45468;-61
2022/03/27 11:03:52;;;;;;;;;33.75;28.75;;;;;18.62;37.99;102459.56;5050094;28;45462;-58
2022/03/27 11:06:22;;;;;;;;;36.75;30.75;;;;;18.70;37.83;102457.28;5050614;28;45597;-59
2022/03/27 11:08:49;;;;;;;;;31.50;25.75;;;;;18.77;37.77;102452.38;5045617;28;45454;-59
2022/03/27 11:11:43;;;;;;;;;26.00;22.75;;;;;18.84;37.79;102451.88;5052298;28;45360;-59
2022/03/27 11:14:09;;;;;;;;;31.25;25.75;;;;;18.94;37.87;102452.97;5040878;28;45948;-59
2022/03/27 11:17:07;;;;;;;;;39.00;28.75;;;;;18.95;37.71;102457.34;5052977;28;45260;-59
2022/03/27 11:19:47;;;;;;;;;31.50;27.75;;;;;18.98;37.61;102450.09;5044298;28;45317;-60
2022/03/27 11:22:55;;;;;;;;;33.75;27.00;;;;;19.05;38.22;102443.41;5046543;28;45739;-59